Time;durP1;ratioP1;P1;durP2;ratioP2;P2;SDS_P1;SDS_P2;PMS_P1;PMS_P2;Temp;Humidity;BMP_temperature;BMP_pressure;BME280_temperature;BME280_humidity;BME280_pressure;Samples;Min_cycle;Max_cycle;Signal;HPM_P1;HPM_P2
2022/01/05 00:01:26;;;;;;;16.52;9.32;;;;;;;9.52;100.00;100368.91;4884592;29;20037;-73
2022/01/05 00:04:12;;;;;;;14.23;10.18;;;;;;;9.45;100.00;100362.94;4884563;29;20367;-73
2022/01/05 00:06:57;;;;;;;15.68;9.82;;;;;;;9.52;100.00;100361.06;4884017;29;20037;-73
2022/01/05 00:09:43;;;;;;;17.90;9.95;;;;;;;9.63;100.00;100367.84;4883940;29;20032;-73
2022/01/05 00:12:29;;;;;;;12.88;9.25;;;;;;;9.57;100.00;100361.88;4883879;29;20029;-73
2022/01/05 00:15:15;;;;;;;15.57;9.02;;;;;;;9.57;100.00;100362.72;4883929;29;20052;-74
2022/01/05 00:24:18;;;;;;;13.98;8.43;;;;;;;9.75;100.00;100366.72;4937083;23;20498;-73
2022/01/05 00:27:04;;;;;;;12.30;8.32;;;;;;;9.72;100.00;100365.03;4887837;29;20040;-72
2022/01/05 00:29:50;;;;;;;13.25;8.73;;;;;;;9.90;100.00;100362.03;4883343;29;20032;-73
2022/01/05 00:32:35;;;;;;;16.42;8.77;;;;;;;9.99;100.00;100364.50;4882879;29;20491;-73
2022/01/05 00:35:21;;;;;;;16.23;8.52;;;;;;;9.73;100.00;100361.53;4870207;29;20033;-71
2022/01/05 00:38:07;;;;;;;14.32;9.20;;;;;;;9.87;100.00;100366.47;4883209;29;20028;-72
2022/01/05 00:40:53;;;;;;;12.38;8.73;;;;;;;9.86;100.00;100370.00;4882753;29;20029;-74
2022/01/05 00:49:56;;;;;;;16.13;9.50;;;;;;;9.34;100.00;100362.31;4956540;23;20060;-72
2022/01/05 00:52:41;;;;;;;15.80;9.27;;;;;;;9.52;100.00;100355.84;4902230;29;20040;-73
2022/01/05 00:55:28;;;;;;;13.45;8.60;;;;;;;9.31;100.00;100353.63;4900190;29;20040;-72
2022/01/05 00:58:14;;;;;;;13.18;9.50;;;;;;;9.24;100.00;100362.47;4870661;29;20043;-72
2022/01/05 01:01:01;;;;;;;12.43;8.70;;;;;;;9.29;100.00;100355.44;4883654;29;20024;-72
2022/01/05 01:03:47;;;;;;;13.80;9.10;;;;;;;8.89;100.00;100351.78;4870094;29;20356;-71
2022/01/05 01:06:33;;;;;;;13.18;9.07;;;;;;;9.31;100.00;100353.63;4883131;29;20128;-72
2022/01/05 01:09:18;;;;;;;11.13;8.00;;;;;;;9.30;100.00;100342.34;4883246;29;20040;-72
2022/01/05 01:12:05;;;;;;;14.60;7.70;;;;;;;9.07;100.00;100354.06;4882728;29;20029;-72
2022/01/05 01:14:50;;;;;;;12.65;8.10;;;;;;;9.01;100.00;100355.03;4883898;29;20071;-71
2022/01/05 01:23:54;;;;;;;12.38;8.18;;;;;;;9.41;100.00;100345.59;5597908;23;20056;-72
2022/01/05 01:26:40;;;;;;;11.20;7.50;;;;;;;9.55;100.00;100354.03;4889171;29;20033;-72
2022/01/05 05:22:07;;;;;;;18.30;11.32;;;;;;;7.62;100.00;100297.03;5959805;23;20023;31
2022/01/05 05:24:53;;;;;;;17.77;11.80;;;;;;;7.65;100.00;100302.22;4830284;29;20050;-71
2022/01/05 05:27:39;;;;;;;18.70;12.25;;;;;;;7.61;100.00;100296.19;4828033;29;20037;-73
2022/01/05 05:30:43;;;;;;;21.63;13.27;;;;;;;7.74;100.00;100299.50;4815239;29;20093;-71
2022/01/05 05:33:29;;;;;;;23.60;13.18;;;;;;;7.67;100.00;100288.28;4814866;29;20038;-72
2022/01/05 05:36:15;;;;;;;22.08;14.05;;;;;;;7.59;100.00;100300.56;4828182;29;20045;-72
2022/01/05 05:39:00;;;;;;;23.15;13.15;;;;;;;7.73;100.00;100293.44;4827149;29;20031;-72
2022/01/05 05:41:46;;;;;;;26.02;13.85;;;;;;;7.84;100.00;100291.53;4827614;29;20034;-73
2022/01/05 05:44:32;;;;;;;21.63;12.60;;;;;;;8.03;100.00;100294.75;4828356;29;20084;-73
2022/01/05 05:47:18;;;;;;;20.35;10.85;;;;;;;8.55;100.00;100296.63;4828745;29;20038;-73
2022/01/05 05:50:35;;;;;;;19.25;10.07;;;;;;;9.34;100.00;100285.63;4813423;29;20035;-71
2022/01/05 05:53:21;;;;;;;17.40;10.18;;;;;;;9.69;100.00;100293.63;4814650;29;20121;-71
2022/01/05 05:56:31;;;;;;;18.52;9.55;;;;;;;9.64;100.00;100298.06;4827758;29;20034;-70
2022/01/05 06:03:03;;;;;;;19.40;10.60;;;;;;;9.95;100.00;100302.66;4827256;29;20528;-70
2022/01/05 06:05:49;;;;;;;21.13;10.50;;;;;;;10.02;100.00;100308.59;4826922;29;20069;-72
2022/01/05 06:08:35;;;;;;;19.67;10.93;;;;;;;10.02;100.00;100313.84;4827043;29;20034;-71
2022/01/05 06:52:11;;;;;;;23.55;12.90;;;;;;;9.80;100.00;100330.88;5383651;23;20147;-72
2022/01/05 06:54:57;;;;;;;24.58;13.52;;;;;;;9.87;100.00;100341.19;4899743;29;20032;-72
2022/01/05 06:57:43;;;;;;;23.30;15.45;;;;;;;10.08;100.00;100337.28;4868099;29;20035;-73
2022/01/05 07:00:31;;;;;;;25.55;15.90;;;;;;;10.12;100.00;100338.09;4880839;29;20029;-72
2022/01/05 07:03:17;;;;;;;25.35;15.18;;;;;;;10.02;100.00;100346.09;4880676;29;20092;-72
2022/01/05 07:06:04;;;;;;;28.15;17.13;;;;;;;9.65;100.00;100354.75;4880097;29;20059;-72
2022/01/05 07:08:50;;;;;;;21.85;13.20;;;;;;;9.54;100.00;100360.19;4880638;29;20021;-72
2022/01/05 07:11:35;;;;;;;19.67;12.27;;;;;;;9.38;100.00;100368.31;4880529;29;20029;-72
2022/01/05 07:14:23;;;;;;;20.58;12.23;;;;;;;9.35;100.00;100376.22;4880297;29;20033;-72
2022/01/05 07:17:09;;;;;;;17.92;12.18;;;;;;;9.71;100.00;100367.69;4880117;29;20056;-72
2022/01/05 07:19:55;;;;;;;16.02;11.45;;;;;;;9.27;100.00;100383.31;4880247;29;20029;-72
2022/01/05 07:22:40;;;;;;;16.45;10.65;;;;;;;9.25;100.00;100379.91;4880301;29;20047;-71
2022/01/05 07:25:26;;;;;;;17.05;10.93;;;;;;;9.45;100.00;100388.25;4880122;29;20047;-73
2022/01/05 07:28:12;;;;;;;17.77;10.02;;;;;;;9.33;100.00;100384.06;4880469;29;20447;-73
2022/01/05 07:30:58;;;;;;;19.88;9.95;;;;;;;9.84;100.00;100385.72;4867578;29;20130;-72
2022/01/05 07:33:44;;;;;;;18.38;11.63;;;;;;;9.74;100.00;100378.94;4881299;29;20364;-72
2022/01/05 07:36:29;;;;;;;22.35;11.38;;;;;;;10.06;100.00;100381.81;4879103;29;20411;-72
2022/01/05 07:39:15;;;;;;;17.55;10.20;;;;;;;10.40;100.00;100386.34;4880650;29;20056;-72
2022/01/05 07:42:01;;;;;;;14.68;10.30;;;;;;;10.49;100.00;100375.66;4879811;29;20109;-72
2022/01/05 07:44:47;;;;;;;16.00;9.90;;;;;;;10.49;100.00;100373.03;4881226;29;20064;-72
2022/01/05 07:47:33;;;;;;;16.45;11.15;;;;;;;9.85;100.00;100370.91;4879592;29;20381;-72
2022/01/05 08:29:53;;;;;;;27.05;13.93;;;;;;;12.89;100.00;100366.31;5091732;23;20049;-73
2022/01/05 08:32:38;;;;;;;25.85;14.38;;;;;;;13.52;100.00;100369.47;4902030;29;20534;-72
2022/01/05 08:35:24;;;;;;;23.63;13.35;;;;;;;13.56;100.00;100357.91;4886044;29;20047;-73
2022/01/05 08:38:11;;;;;;;31.58;15.00;;;;;;;13.46;100.00;100361.78;4883323;29;20355;-73
2022/01/05 08:40:57;;;;;;;25.42;13.48;;;;;;;13.74;100.00;100357.25;4883403;29;20085;-72
2022/01/05 08:43:43;;;;;;;32.45;16.73;;;;;;;13.80;100.00;100352.66;4883388;29;20435;-74
2022/01/05 08:46:29;;;;;;;29.65;17.75;;;;;;;13.51;100.00;100352.81;4883326;29;20025;-73
2022/01/05 09:03:35;;;;;;;30.08;15.45;;;;;;;14.15;100.00;100344.28;5183197;23;20136;-73
2022/01/05 09:06:20;;;;;;;32.65;16.00;;;;;;;14.24;100.00;100343.97;4891964;29;20025;-73
2022/01/05 09:09:06;;;;;;;27.73;15.57;;;;;;;14.16;100.00;100346.00;4882277;29;20039;-72
2022/01/05 09:11:52;;;;;;;23.33;13.50;;;;;;;14.89;100.00;100346.66;4881992;29;20032;-72
2022/01/05 09:14:39;;;;;;;31.00;14.23;;;;;;;15.05;98.50;100333.66;4883226;29;20047;-73
2022/01/05 09:17:26;;;;;;;28.05;14.80;;;;;;;14.09;100.00;100341.03;4881312;29;20052;-74
2022/01/05 09:37:33;;;;;;;13.00;7.68;;;;;;;14.48;100.00;100329.00;4958573;23;20061;-73
2022/01/05 09:43:17;;;;;;;20.17;9.27;;;;;;;14.07;100.00;100327.06;4882642;29;20021;-73
2022/01/05 09:46:09;;;;;;;13.80;8.27;;;;;;;14.49;100.00;100330.69;4882221;29;20093;-72
2022/01/05 09:49:08;;;;;;;12.82;7.85;;;;;;;14.43;100.00;100330.97;4882073;29;20339;-72
2022/01/05 09:51:57;;;;;;;13.80;9.13;;;;;;;14.43;100.00;100320.41;4869178;29;20124;-72
2022/01/05 09:54:42;;;;;;;11.43;7.45;;;;;;;14.54;100.00;100307.66;4869056;29;20058;-72
2022/01/05 09:57:29;;;;;;;12.15;8.02;;;;;;;14.42;100.00;100311.63;4882462;29;20352;-73
2022/01/05 10:00:16;;;;;;;12.63;9.40;;;;;;;13.91;100.00;100313.59;4881313;29;20090;-72
2022/01/05 10:03:01;;;;;;;16.40;8.32;;;;;;;14.00;100.00;100309.78;4881691;29;20131;-73
2022/01/05 10:05:47;;;;;;;10.90;7.90;;;;;;;14.38;100.00;100302.13;4882214;29;20029;-73
2022/01/05 10:08:33;;;;;;;16.88;8.43;;;;;;;14.66;100.00;100299.25;4881402;29;20025;-71
2022/01/05 10:15:06;;;;;;;12.88;8.38;;;;;;;14.42;100.00;100298.47;5000818;23;20051;-71
2022/01/05 10:18:11;;;;;;;13.95;7.82;;;;;;;14.97;100.00;100285.66;4881375;29;20037;-70
2022/01/05 10:21:01;;;;;;;14.35;8.40;;;;;;;14.88;100.00;100289.53;4881525;29;20392;-71
2022/01/05 10:23:48;;;;;;;12.70;8.45;;;;;;;14.82;100.00;100286.31;4881030;29;20025;-72
2022/01/05 10:26:39;;;;;;;12.13;7.75;;;;;;;15.16;98.58;100284.81;4880962;29;20029;-71
2022/01/05 10:29:25;;;;;;;14.27;7.57;;;;;;;14.63;98.65;100281.78;4881389;29;20033;-71
2022/01/05 10:32:10;;;;;;;9.93;7.25;;;;;;;14.70;98.00;100282.38;4881548;29;20045;-70
2022/01/05 10:35:07;;;;;;;12.63;7.53;;;;;;;14.88;96.49;100277.19;4881401;29;20040;-70
2022/01/05 10:38:00;;;;;;;14.77;7.65;;;;;;;14.82;93.17;100266.91;4881459;29;20121;-71
2022/01/05 10:40:45;;;;;;;10.57;7.25;;;;;;;15.64;91.69;100263.34;4881183;29;20025;-71
2022/01/05 10:43:31;;;;;;;10.93;7.32;;;;;;;14.94;94.42;100260.25;4868127;29;20048;-72
2022/01/05 10:48:53;;;;;;;13.07;7.00;;;;;;;15.86;89.53;100254.38;5246618;23;20053;-72
2022/01/05 10:51:39;;;;;;;16.25;6.95;;;;;;;15.69;90.96;100256.06;4885579;29;20038;-72
2022/01/05 10:54:27;;;;;;;11.00;6.43;;;;;;;16.11;90.17;100262.03;4885496;29;20032;-72
2022/01/05 10:57:14;;;;;;;14.13;7.05;;;;;;;16.63;87.42;100259.47;4883324;29;20056;-71
2022/01/05 10:59:59;;;;;;;12.15;7.22;;;;;;;16.04;88.05;100263.25;4879913;29;20057;-72
2022/01/05 11:02:45;;;;;;;9.40;6.82;;;;;;;17.08;84.36;100256.31;4867818;29;20442;-71
2022/01/05 11:05:31;;;;;;;17.63;7.50;;;;;;;17.29;81.14;100250.78;4866993;29;20039;-71
2022/01/05 11:46:46;;;;;;;9.95;6.03;;;;;;;17.18;82.38;100212.53;5019796;23;20057;-71
2022/01/05 11:49:31;;;;;;;9.90;5.60;;;;;;;16.75;82.01;100205.06;4880833;29;20033;-72
2022/01/05 11:52:17;;;;;;;8.57;5.88;;;;;;;17.71;79.49;100199.94;4879511;29;20033;-73
2022/01/05 11:55:05;;;;;;;7.68;5.95;;;;;;;17.57;78.42;100202.50;4879840;29;20040;-72
2022/01/05 11:58:17;;;;;;;7.85;5.78;;;;;;;17.62;79.85;100195.16;4880920;29;20029;-73
2022/01/05 12:01:12;;;;;;;9.65;6.40;;;;;;;17.67;78.86;100179.88;4881047;29;20370;-73
2022/01/05 12:03:58;;;;;;;10.98;5.97;;;;;;;17.22;83.10;100177.88;4880943;29;20177;-72
2022/01/05 12:06:43;;;;;;;15.13;6.47;;;;;;;17.13;81.01;100166.91;4879770;29;20029;-73
2022/01/05 12:49:42;;;;;;;11.68;6.03;;;;;;;17.54;81.50;100115.25;5403505;23;20052;-75
2022/01/05 12:52:37;;;;;;;7.93;6.18;;;;;;;17.23;82.00;100118.69;4901914;29;20370;-72
2022/01/05 12:55:23;;;;;;;11.50;7.13;;;;;;;17.28;82.54;100115.81;4886904;29;20024;-72
2022/01/05 12:58:09;;;;;;;12.80;8.10;;;;;;;17.40;81.47;100107.19;4883275;29;20101;-73
2022/01/05 13:00:55;;;;;;;14.35;9.07;;;;;;;17.60;79.62;100110.47;4883798;29;20029;-73
2022/01/05 13:03:41;;;;;;;13.30;8.85;;;;;;;17.37;81.63;100110.84;4869879;29;20086;-72
2022/01/05 13:06:29;;;;;;;13.93;7.72;;;;;;;17.46;80.37;100105.09;4882884;29;20454;-72
2022/01/05 13:09:26;;;;;;;12.35;7.55;;;;;;;17.46;79.87;100104.22;4883719;29;20068;-72
2022/01/05 13:12:26;;;;;;;9.73;7.22;;;;;;;17.40;80.22;100105.41;4882847;29;20024;-73
2022/01/05 13:15:15;;;;;;;11.90;7.22;;;;;;;17.34;79.64;100110.16;4882927;29;20025;-72
2022/01/05 13:18:01;;;;;;;10.50;7.20;;;;;;;17.30;80.67;100103.31;4883206;29;20033;-72
2022/01/05 13:20:56;;;;;;;14.05;7.07;;;;;;;17.19;80.24;100111.84;4883583;29;20025;-72
2022/01/05 13:23:54;;;;;;;11.60;7.68;;;;;;;16.95;81.46;100107.88;4883156;29;20511;-73
2022/01/05 13:27:04;;;;;;;11.73;7.70;;;;;;;16.85;81.74;100108.44;4882771;29;20047;-72
2022/01/05 13:36:17;;;;;;;8.75;6.03;;;;;;;16.62;83.47;100111.41;5840074;23;20101;-73
2022/01/05 13:39:03;;;;;;;11.10;6.65;;;;;;;16.55;84.36;100112.69;4901282;29;20035;-72
2022/01/05 13:41:55;;;;;;;14.18;7.15;;;;;;;16.33;86.85;100107.59;4901242;29;20375;-73
2022/01/05 13:44:43;;;;;;;11.88;6.28;;;;;;;16.33;86.55;100102.31;4901394;29;20512;-73
2022/01/05 13:47:29;;;;;;;19.55;7.40;;;;;;;16.17;87.50;100101.38;4883077;29;20036;-72
2022/01/05 13:54:00;;;;;;;13.85;7.32;;;;;;;16.11;92.01;100098.19;5381456;23;20027;-72
2022/01/05 13:56:45;;;;;;;13.43;8.50;;;;;;;16.04;94.30;100088.84;4888666;29;20041;-72
2022/01/05 13:59:43;;;;;;;15.32;8.40;;;;;;;16.13;93.44;100085.72;4881472;29;20033;-71
2022/01/05 14:02:30;;;;;;;13.68;8.55;;;;;;;16.11;94.19;100090.25;4882489;29;20033;-71
2022/01/05 14:05:16;;;;;;;16.33;9.10;;;;;;;16.22;95.15;100095.84;4881904;29;20029;-72
2022/01/05 14:08:09;;;;;;;12.57;8.82;;;;;;;15.98;98.41;100095.28;4881398;29;20029;-72
2022/01/05 14:14:54;;;;;;;15.50;9.95;;;;;;;15.75;100.00;100102.63;4881470;29;20064;-72
2022/01/05 14:18:02;;;;;;;15.60;10.10;;;;;;;15.76;100.00;100105.19;4882316;29;20044;-71
2022/01/05 14:20:50;;;;;;;18.13;10.18;;;;;;;15.71;100.00;100090.50;4868405;29;20043;-71
2022/01/05 14:23:46;;;;;;;16.15;10.38;;;;;;;15.45;100.00;100090.84;4882169;29;20036;-70
2022/01/05 14:26:33;;;;;;;19.83;11.35;;;;;;;15.44;100.00;100094.44;4881147;29;20047;-70
2022/01/05 14:29:25;;;;;;;35.20;18.27;;;;;;;15.46;100.00;100098.72;4880935;29;20029;-72
2022/01/05 14:32:13;;;;;;;29.70;17.95;;;;;;;15.35;100.00;100093.06;4881484;29;20053;-71
2022/01/05 14:35:00;;;;;;;49.13;21.38;;;;;;;15.30;100.00;100095.03;4880761;29;20115;-71
2022/01/05 14:38:02;;;;;;;37.42;18.35;;;;;;;15.18;100.00;100092.13;4880915;29;20036;-70
2022/01/05 14:40:49;;;;;;;28.48;17.55;;;;;;;15.20;100.00;100090.25;4880906;29;20473;-72
2022/01/05 14:43:35;;;;;;;37.25;17.60;;;;;;;15.07;100.00;100089.94;4882165;29;20060;-71
2022/01/05 14:46:21;;;;;;;38.17;18.20;;;;;;;15.04;100.00;100086.59;4880722;29;20097;-71
2022/01/05 14:49:11;;;;;;;31.83;17.02;;;;;;;14.93;100.00;100092.38;4881409;29;20576;-71
2022/01/05 15:30:54;;;;;;;80.53;38.25;;;;;;;11.94;100.00;100080.50;5948537;23;20027;-72
2022/01/05 15:33:41;;;;;;;82.90;36.65;;;;;;;11.60;100.00;100086.84;4879624;29;20144;-73
2022/01/05 15:36:27;;;;;;;59.92;29.30;;;;;;;11.31;100.00;100089.53;4870629;29;20073;-73
2022/01/05 15:39:12;;;;;;;77.57;36.22;;;;;;;11.34;100.00;100081.56;4861338;29;20030;-71
2022/01/05 15:41:58;;;;;;;65.60;33.78;;;;;;;11.41;100.00;100073.47;4861885;29;20041;-73
2022/01/05 15:44:46;;;;;;;70.60;35.35;;;;;;;11.46;100.00;100079.44;4862143;29;20025;-72
2022/01/05 15:47:32;;;;;;;83.20;40.40;;;;;;;11.43;100.00;100081.28;4861555;29;20033;-73
2022/01/05 15:50:17;;;;;;;111.72;55.90;;;;;;;11.32;100.00;100091.22;4861724;29;20037;-73
2022/01/05 15:53:04;;;;;;;102.10;47.28;;;;;;;11.20;100.00;100087.22;4861757;29;20566;-73
2022/01/05 15:56:07;;;;;;;105.57;51.55;;;;;;;11.01;100.00;100093.91;4861650;29;20101;-73
2022/01/05 16:02:01;;;;;;;139.80;61.90;;;;;;;10.85;100.00;100083.94;4863316;29;20125;-72
2022/01/05 16:04:47;;;;;;;142.07;65.57;;;;;;;10.94;100.00;100088.91;4861241;29;20420;-72
2022/01/05 16:07:33;;;;;;;153.18;72.78;;;;;;;11.17;100.00;100089.94;4861631;29;20053;-73
2022/01/05 16:10:22;;;;;;;154.77;73.28;;;;;;;11.12;100.00;100080.47;4861344;29;20455;-73
2022/01/05 16:16:49;;;;;;;133.82;73.85;;;;;;;11.05;100.00;100076.34;4861846;29;20482;-71
2022/01/05 16:19:35;;;;;;;125.10;62.63;;;;;;;10.97;100.00;100078.34;4862003;29;20025;-73
2022/01/05 16:22:21;;;;;;;103.93;57.30;;;;;;;10.81;100.00;100085.75;4861387;29;20040;-72
2022/01/05 16:25:11;;;;;;;92.97;52.60;;;;;;;10.66;100.00;100080.97;4865517;29;20094;-73
2022/01/05 16:27:57;;;;;;;98.10;53.63;;;;;;;10.67;100.00;100077.44;4865012;29;20178;-73
2022/01/05 16:30:43;;;;;;;93.38;50.28;;;;;;;10.69;100.00;100077.41;4865545;29;20038;-73
2022/01/05 16:33:29;;;;;;;89.07;47.60;;;;;;;10.66;100.00;100070.50;4870379;29;20439;-73
2022/01/05 16:38:50;;;;;;;106.30;54.13;;;;;;;10.31;100.00;100075.81;5413207;23;20060;-73
2022/01/05 16:41:37;;;;;;;109.70;56.50;;;;;;;10.34;100.00;100072.25;4920392;29;20039;-72
2022/01/05 16:44:22;;;;;;;118.75;56.85;;;;;;;10.13;100.00;100071.94;4920597;29;20185;-72
2022/01/05 16:47:09;;;;;;;129.93;60.00;;;;;;;10.12;100.00;100078.97;4905135;29;20365;-73
2022/01/05 16:49:55;;;;;;;113.40;56.60;;;;;;;9.95;100.00;100074.13;4901668;29;20128;-72
2022/01/05 16:52:41;;;;;;;116.88;58.45;;;;;;;10.08;100.00;100080.78;4901821;29;20036;-73
2022/01/05 16:55:27;;;;;;;124.55;65.45;;;;;;;10.17;100.00;100077.97;4903126;29;20039;-73
2022/01/05 17:01:16;;;;;;;149.77;71.75;;;;;;;10.24;100.00;100073.44;4901503;29;20048;-73
2022/01/05 17:04:02;;;;;;;149.63;76.65;;;;;;;10.04;100.00;100064.28;4888824;29;20107;-73
2022/01/05 17:10:31;;;;;;;130.23;69.25;;;;;;;9.78;100.00;100073.69;4900913;29;20051;-72
2022/01/05 17:13:20;;;;;;;126.80;67.03;;;;;;;9.73;100.00;100072.94;4901184;29;20474;-75
2022/01/05 17:16:06;;;;;;;143.60;72.50;;;;;;;9.70;100.00;100076.47;4900934;29;20064;-72
2022/01/05 17:18:52;;;;;;;130.95;67.50;;;;;;;9.52;100.00;100073.44;4888878;29;20088;-73
2022/01/05 17:21:38;;;;;;;128.23;70.10;;;;;;;9.49;100.00;100071.75;4901837;29;20048;-72
2022/01/05 17:24:23;;;;;;;153.63;73.80;;;;;;;9.43;100.00;100073.66;4900919;29;20031;-72
2022/01/05 17:27:09;;;;;;;151.88;78.90;;;;;;;9.62;100.00;100074.97;4901142;29;20073;-73
2022/01/05 17:29:55;;;;;;;152.05;82.43;;;;;;;9.66;100.00;100081.84;4900509;29;20123;-74
2022/01/05 17:32:42;;;;;;;156.93;84.32;;;;;;;9.55;100.00;100081.22;4888519;29;20096;-72
2022/01/05 17:35:28;;;;;;;160.23;88.47;;;;;;;9.65;100.00;100087.97;4900602;29;20147;-73
2022/01/05 17:38:13;;;;;;;163.00;88.35;;;;;;;9.64;100.00;100094.06;4901379;29;20071;-74
2022/01/05 17:40:59;;;;;;;163.77;89.28;;;;;;;9.59;100.00;100086.34;4900795;29;20060;-73
2022/01/05 17:43:46;;;;;;;169.32;92.47;;;;;;;9.53;100.00;100088.25;4901089;29;20024;-73
2022/01/05 17:46:32;;;;;;;184.05;94.78;;;;;;;9.30;100.00;100094.00;4900495;29;20032;-72
2022/01/05 17:49:19;;;;;;;188.80;99.68;;;;;;;9.28;100.00;100092.28;4901052;29;20032;-73
2022/01/05 17:52:05;;;;;;;195.93;104.93;;;;;;;9.31;100.00;100093.09;4900636;29;20037;-74
2022/01/05 17:54:51;;;;;;;212.15;116.07;;;;;;;9.23;100.00;100088.94;4900317;29;20376;-73
2022/01/05 17:57:37;;;;;;;219.27;119.30;;;;;;;9.32;100.00;100092.19;4900264;29;20028;-72
2022/01/05 18:00:22;;;;;;;204.27;112.25;;;;;;;9.27;100.00;100087.97;4899813;29;20029;-73
2022/01/05 18:04:00;;;;;;;210.25;111.88;;;;;;;9.16;100.00;100076.88;4900185;29;20032;-72
2022/01/05 18:06:46;;;;;;;205.07;113.10;;;;;;;9.11;100.00;100077.00;4899593;29;20043;-70
2022/01/05 18:09:32;;;;;;;211.07;114.40;;;;;;;9.26;100.00;100075.81;4900183;29;20025;-71
2022/01/05 18:12:18;;;;;;;232.75;118.43;;;;;;;9.16;100.00;100082.09;4899153;29;20032;-70
2022/01/05 18:15:04;;;;;;;213.50;117.78;;;;;;;9.24;100.00;100086.28;4900220;29;20035;-71
2022/01/05 18:17:49;;;;;;;223.30;119.80;;;;;;;9.11;100.00;100076.13;4899445;29;20024;-71
2022/01/05 18:20:35;;;;;;;208.65;119.82;;;;;;;9.01;100.00;100083.31;4899960;29;20184;-70
2022/01/05 18:23:21;;;;;;;223.20;121.70;;;;;;;8.95;100.00;100072.13;4899849;29;20077;-71
2022/01/05 18:26:08;;;;;;;219.02;120.10;;;;;;;8.89;100.00;100073.13;4887245;29;20063;-71
2022/01/05 18:28:54;;;;;;;217.93;121.63;;;;;;;8.79;100.00;100065.50;4899211;29;20032;-71
2022/01/05 18:31:40;;;;;;;232.05;129.85;;;;;;;8.89;100.00;100074.88;4899333;29;20028;-71
2022/01/05 18:34:26;;;;;;;217.57;124.60;;;;;;;9.69;100.00;100072.16;4901308;29;20028;-71
2022/01/05 18:37:12;;;;;;;222.23;125.70;;;;;;;10.25;100.00;100065.53;4887102;29;20107;-72
2022/01/05 18:39:58;;;;;;;229.57;127.65;;;;;;;10.26;100.00;100072.47;4899528;29;20044;-71
2022/01/05 18:42:44;;;;;;;234.32;136.45;;;;;;;10.62;100.00;100074.09;4899178;29;20029;-71
2022/01/05 18:48:05;;;;;;;238.60;138.57;;;;;;;10.87;100.00;100082.97;5607610;23;20117;-71
2022/01/05 18:50:51;;;;;;;237.95;133.68;;;;;;;10.57;100.00;100070.72;4918696;29;20028;-71
2022/01/05 18:53:37;;;;;;;256.33;139.90;;;;;;;10.66;100.00;100077.47;4904410;29;20032;-71
2022/01/05 19:01:33;;;;;;;249.52;143.10;;;;;;;10.74;100.00;100080.75;4972092;23;20055;-72
2022/01/05 19:04:19;;;;;;;230.20;134.07;;;;;;;10.70;100.00;100077.38;4918250;29;20047;-73
2022/01/05 19:07:05;;;;;;;245.40;141.35;;;;;;;10.54;100.00;100078.69;4902843;29;20426;-72
2022/01/05 19:09:55;;;;;;;247.27;140.70;;;;;;;10.25;100.00;100081.25;4898498;29;20032;-73
2022/01/05 19:12:41;;;;;;;237.30;140.13;;;;;;;10.75;100.00;100083.34;4898444;29;20384;-74
2022/01/05 19:15:26;;;;;;;251.35;143.93;;;;;;;10.35;100.00;100084.44;4885963;29;20037;-73
2022/01/05 19:18:12;;;;;;;239.38;140.00;;;;;;;10.56;100.00;100076.03;4885948;29;20028;-70
2022/01/05 19:20:58;;;;;;;259.85;147.57;;;;;;;10.59;100.00;100089.91;4898917;29;20104;-72
2022/01/05 19:23:46;;;;;;;243.95;143.50;;;;;;;10.45;100.00;100084.16;4898249;29;20036;-72
2022/01/05 19:26:32;;;;;;;268.80;149.52;;;;;;;10.26;100.00;100090.81;4898867;29;20043;-72
2022/01/05 19:29:18;;;;;;;253.82;153.07;;;;;;;10.65;100.00;100092.31;4898698;29;20108;-72
2022/01/05 19:32:04;;;;;;;256.33;152.35;;;;;;;10.46;100.00;100085.91;4898678;29;20032;-72
2022/01/05 19:34:49;;;;;;;270.08;153.82;;;;;;;10.51;100.00;100089.25;4885949;29;20101;-72
2022/01/05 19:37:35;;;;;;;268.50;155.75;;;;;;;10.22;100.00;100081.31;4898317;29;20421;-71
2022/01/05 19:40:21;;;;;;;258.42;154.32;;;;;;;10.24;100.00;100086.50;4898488;29;20037;-72
2022/01/05 19:43:08;;;;;;;262.50;152.90;;;;;;;10.30;100.00;100084.59;4886352;29;20037;-72
2022/01/05 19:45:55;;;;;;;260.20;149.15;;;;;;;10.03;100.00;100091.38;4898555;29;20021;-72
2022/01/05 19:48:41;;;;;;;268.80;162.35;;;;;;;10.17;100.00;100082.31;4898513;29;20096;-72
2022/01/05 19:54:49;;;;;;;273.90;154.57;;;;;;;9.93;100.00;100074.16;4895766;29;20374;-72
2022/01/05 19:57:35;;;;;;;275.85;159.00;;;;;;;10.09;100.00;100078.13;4899817;29;20107;-72
2022/01/05 20:00:21;;;;;;;258.17;150.20;;;;;;;10.00;100.00;100078.34;4902095;29;20061;-73
2022/01/05 20:03:10;;;;;;;253.52;148.98;;;;;;;10.02;100.00;100083.56;4902182;29;20041;-72
2022/01/05 20:05:56;;;;;;;252.70;147.73;;;;;;;10.40;100.00;100080.81;4888890;29;20092;-73
2022/01/05 20:08:41;;;;;;;235.25;138.57;;;;;;;10.23;100.00;100082.16;4902079;29;20107;-73
2022/01/05 20:11:27;;;;;;;221.18;126.75;;;;;;;10.12;100.00;100079.81;4901695;29;20377;-73
2022/01/05 20:14:13;;;;;;;205.80;118.72;;;;;;;10.20;100.00;100085.72;4901743;29;20033;-73
2022/01/05 20:17:03;;;;;;;205.20;118.18;;;;;;;10.33;100.00;100081.88;4901596;29;20069;-72
2022/01/05 20:19:49;;;;;;;200.23;115.63;;;;;;;10.12;100.00;100092.91;4902358;29;20025;-72
2022/01/05 20:22:35;;;;;;;185.65;106.95;;;;;;;10.13;100.00;100088.53;4900685;29;20029;-71
2022/01/05 20:25:20;;;;;;;172.68;101.95;;;;;;;10.19;100.00;100084.00;4902074;29;20032;-72
2022/01/05 20:28:06;;;;;;;179.40;102.90;;;;;;;10.25;100.00;100083.84;4902107;29;20123;-73
2022/01/05 20:30:52;;;;;;;180.60;102.18;;;;;;;10.20;100.00;100074.41;4902478;29;20040;-72
2022/01/05 20:33:38;;;;;;;163.35;94.35;;;;;;;10.09;100.00;100093.00;4902926;29;20477;-72
2022/01/05 20:36:24;;;;;;;132.45;76.78;;;;;;;10.09;100.00;100090.38;4889277;29;20115;-72
2022/01/05 20:39:10;;;;;;;139.20;78.90;;;;;;;9.67;100.00;100094.88;4902253;29;20028;-72
2022/01/05 20:41:56;;;;;;;136.15;79.38;;;;;;;9.88;100.00;100080.41;4901080;29;20422;-72
2022/01/05 20:44:41;;;;;;;168.40;95.45;;;;;;;9.73;100.00;100094.72;4901804;29;20056;-71
2022/01/05 20:47:28;;;;;;;174.20;99.47;;;;;;;9.92;100.00;100085.53;4900982;29;20108;-72
2022/01/05 20:50:14;;;;;;;185.40;105.88;;;;;;;9.81;100.00;100091.94;4902099;29;20040;-73
2022/01/05 20:53:00;;;;;;;189.23;109.15;;;;;;;9.71;100.00;100093.03;4902105;29;20071;-71
2022/01/05 20:55:46;;;;;;;188.65;109.70;;;;;;;9.84;100.00;100091.84;4901593;29;20514;-72
2022/01/05 20:58:32;;;;;;;197.13;109.00;;;;;;;9.48;100.00;100105.78;4901040;29;20037;-72
2022/01/05 21:01:42;;;;;;;163.73;95.25;;;;;;;9.67;100.00;100105.34;4901216;29;20048;-72
2022/01/05 21:04:28;;;;;;;139.25;81.75;;;;;;;9.75;100.00;100113.00;4888562;29;20033;-73
2022/01/05 21:07:14;;;;;;;150.55;90.80;;;;;;;9.83;100.00;100111.94;4901549;29;20025;-71
2022/01/05 21:10:00;;;;;;;147.15;84.95;;;;;;;9.70;100.00;100114.88;4900737;29;20056;-72
2022/01/05 21:12:46;;;;;;;150.30;87.43;;;;;;;9.68;100.00;100112.28;4900570;29;20120;-73
2022/01/05 21:15:38;;;;;;;152.65;92.72;;;;;;;9.65;100.00;100114.13;4901032;29;20040;-71
2022/01/05 21:18:23;;;;;;;157.85;91.57;;;;;;;9.43;100.00;100102.41;4900952;29;20123;-72
2022/01/05 21:21:09;;;;;;;191.20;112.07;;;;;;;9.23;100.00;100113.31;4901392;29;20086;-72
2022/01/05 21:23:55;;;;;;;218.43;126.65;;;;;;;9.38;100.00;100117.34;4900241;29;20088;-72
2022/01/05 21:26:41;;;;;;;211.25;122.50;;;;;;;9.56;100.00;100109.06;4900492;29;20050;-72
2022/01/05 21:29:27;;;;;;;197.43;118.07;;;;;;;9.82;100.00;100101.50;4901013;29;20372;-71
2022/01/05 21:32:12;;;;;;;215.32;131.20;;;;;;;9.83;100.00;100096.22;4900817;29;20025;-73